sensor_id;sensor_type;location;lat;lon;timestamp;temperature;humidity
24902;DHT22;31328;51.402;0.016;2022-10-16T00:01:08;13.40;98.00
24902;DHT22;31328;51.402;0.016;2022-10-16T00:03:35;13.40;98.00
24902;DHT22;31328;51.402;0.016;2022-10-16T00:06:02;13.40;98.10
24902;DHT22;31328;51.402;0.016;2022-10-16T00:08:29;13.40;98.10
24902;DHT22;31328;51.402;0.016;2022-10-16T00:11:03;13.30;98.10
24902;DHT22;31328;51.402;0.016;2022-10-16T00:13:31;13.30;98.10
24902;DHT22;31328;51.402;0.016;2022-10-16T00:15:59;13.30;98.20
24902;DHT22;31328;51.402;0.016;2022-10-16T00:18:26;13.30;98.20
24902;DHT22;31328;51.402;0.016;2022-10-16T00:20:53;13.30;98.20
24902;DHT22;31328;51.402;0.016;2022-10-16T00:23:38;13.30;98.20
24902;DHT22;31328;51.402;0.016;2022-10-16T00:26:07;13.30;98.20
24902;DHT22;31328;51.402;0.016;2022-10-16T00:28:35;13.30;98.20
24902;DHT22;31328;51.402;0.016;2022-10-16T00:31:09;13.30;98.20
24902;DHT22;31328;51.402;0.016;2022-10-16T00:33:36;13.30;98.20
24902;DHT22;31328;51.402;0.016;2022-10-16T00:36:04;13.30;98.20
24902;DHT22;31328;51.402;0.016;2022-10-16T00:38:31;13.30;98.20
24902;DHT22;31328;51.402;0.016;2022-10-16T00:40:58;13.30;98.20
24902;DHT22;31328;51.402;0.016;2022-10-16T00:43:53;13.30;98.20
24902;DHT22;31328;51.402;0.016;2022-10-16T00:46:29;13.30;98.20
24902;DHT22;31328;51.402;0.016;2022-10-16T00:49:04;13.20;98.10
24902;DHT22;31328;51.402;0.016;2022-10-16T00:51:34;13.20;98.10
24902;DHT22;31328;51.402;0.016;2022-10-16T00:54:03;13.20;98.10
24902;DHT22;31328;51.402;0.016;2022-10-16T00:56:30;13.20;98.10
24902;DHT22;31328;51.402;0.016;2022-10-16T00:58:56;13.20;98.10
24902;DHT22;31328;51.402;0.016;2022-10-16T01:01:23;13.20;98.10
24902;DHT22;31328;51.402;0.016;2022-10-16T01:03:49;13.20;98.10
24902;DHT22;31328;51.402;0.016;2022-10-16T01:12:20;13.30;98.20
24902;DHT22;31328;51.402;0.016;2022-10-16T01:14:45;13.20;98.10
24902;DHT22;31328;51.402;0.016;2022-10-16T01:17:23;13.20;98.10
24902;DHT22;31328;51.402;0.016;2022-10-16T01:28:30;13.30;98.20
24902;DHT22;31328;51.402;0.016;2022-10-16T01:31:00;13.20;98.10
24902;DHT22;31328;51.402;0.016;2022-10-16T01:33:56;13.30;98.20
24902;DHT22;31328;51.402;0.016;2022-10-16T01:36:28;13.20;98.10
24902;DHT22;31328;51.402;0.016;2022-10-16T01:38:56;13.20;98.30
24902;DHT22;31328;51.402;0.016;2022-10-16T01:41:41;13.20;98.30
24902;DHT22;31328;51.402;0.016;2022-10-16T01:44:45;13.20;98.30
24902;DHT22;31328;51.402;0.016;2022-10-16T01:47:13;13.20;98.40
24902;DHT22;31328;51.402;0.016;2022-10-16T01:49:41;13.20;98.40
24902;DHT22;31328;51.402;0.016;2022-10-16T01:52:14;13.10;98.80
24902;DHT22;31328;51.402;0.016;2022-10-16T01:54:45;13.10;98.50
24902;DHT22;31328;51.402;0.016;2022-10-16T01:57:12;13.10;98.50
24902;DHT22;31328;51.402;0.016;2022-10-16T01:59:47;13.20;98.70
24902;DHT22;31328;51.402;0.016;2022-10-16T02:02:15;13.20;98.70
24902;DHT22;31328;51.402;0.016;2022-10-16T02:04:49;13.20;98.80
24902;DHT22;31328;51.402;0.016;2022-10-16T02:07:17;13.20;98.80
24902;DHT22;31328;51.402;0.016;2022-10-16T02:09:44;13.20;98.80
24902;DHT22;31328;51.402;0.016;2022-10-16T02:12:31;13.30;98.80
24902;DHT22;31328;51.402;0.016;2022-10-16T02:14:59;13.30;98.80
24902;DHT22;31328;51.402;0.016;2022-10-16T02:17:26;13.40;98.80
24902;DHT22;31328;51.402;0.016;2022-10-16T02:19:55;13.40;98.80
24902;DHT22;31328;51.402;0.016;2022-10-16T02:22:38;13.40;98.80
24902;DHT22;31328;51.402;0.016;2022-10-16T02:27:58;13.50;98.80
24902;DHT22;31328;51.402;0.016;2022-10-16T02:30:56;13.40;98.70
24902;DHT22;31328;51.402;0.016;2022-10-16T02:33:23;13.40;98.70
24902;DHT22;31328;51.402;0.016;2022-10-16T02:35:51;13.40;98.50
24902;DHT22;31328;51.402;0.016;2022-10-16T02:38:20;13.40;98.60
24902;DHT22;31328;51.402;0.016;2022-10-16T02:40:47;13.40;98.50
24902;DHT22;31328;51.402;0.016;2022-10-16T02:43:14;13.30;98.50
24902;DHT22;31328;51.402;0.016;2022-10-16T02:45:40;13.30;98.50
24902;DHT22;31328;51.402;0.016;2022-10-16T02:48:07;13.20;98.40
24902;DHT22;31328;51.402;0.016;2022-10-16T02:50:33;13.20;98.40
24902;DHT22;31328;51.402;0.016;2022-10-16T02:53:00;13.20;98.40
24902;DHT22;31328;51.402;0.016;2022-10-16T02:55:26;13.10;98.30
24902;DHT22;31328;51.402;0.016;2022-10-16T02:57:55;13.10;98.30
24902;DHT22;31328;51.402;0.016;2022-10-16T03:00:21;13.10;98.30
24902;DHT22;31328;51.402;0.016;2022-10-16T03:02:48;13.10;98.40
24902;DHT22;31328;51.402;0.016;2022-10-16T03:05:14;13.00;98.30
24902;DHT22;31328;51.402;0.016;2022-10-16T03:07:40;13.00;98.30
24902;DHT22;31328;51.402;0.016;2022-10-16T03:10:07;13.00;98.30
24902;DHT22;31328;51.402;0.016;2022-10-16T03:12:34;12.90;98.30
24902;DHT22;31328;51.402;0.016;2022-10-16T03:15:00;12.90;98.20
24902;DHT22;31328;51.402;0.016;2022-10-16T03:17:26;12.80;98.20
24902;DHT22;31328;51.402;0.016;2022-10-16T03:19:53;12.80;98.20
24902;DHT22;31328;51.402;0.016;2022-10-16T03:22:19;12.80;98.20
24902;DHT22;31328;51.402;0.016;2022-10-16T03:24:45;12.80;98.10
24902;DHT22;31328;51.402;0.016;2022-10-16T03:27:12;12.80;98.00
24902;DHT22;31328;51.402;0.016;2022-10-16T03:29:38;12.70;98.00
24902;DHT22;31328;51.402;0.016;2022-10-16T03:32:04;12.70;98.00
24902;DHT22;31328;51.402;0.016;2022-10-16T03:34:30;12.70;98.00
24902;DHT22;31328;51.402;0.016;2022-10-16T03:36:57;12.70;98.00
24902;DHT22;31328;51.402;0.016;2022-10-16T03:39:23;12.60;98.00
24902;DHT22;31328;51.402;0.016;2022-10-16T03:41:49;12.60;98.00
24902;DHT22;31328;51.402;0.016;2022-10-16T03:44:16;12.60;98.00
24902;DHT22;31328;51.402;0.016;2022-10-16T03:46:42;12.60;98.00
24902;DHT22;31328;51.402;0.016;2022-10-16T03:49:08;12.60;98.00
24902;DHT22;31328;51.402;0.016;2022-10-16T03:51:35;12.60;98.00
24902;DHT22;31328;51.402;0.016;2022-10-16T03:54:01;12.60;98.00
24902;DHT22;31328;51.402;0.016;2022-10-16T03:56:27;12.50;97.90
24902;DHT22;31328;51.402;0.016;2022-10-16T03:58:54;12.50;97.90
24902;DHT22;31328;51.402;0.016;2022-10-16T04:01:20;12.60;98.00
24902;DHT22;31328;51.402;0.016;2022-10-16T04:03:46;12.60;98.30
24902;DHT22;31328;51.402;0.016;2022-10-16T04:06:13;12.50;97.90
24902;DHT22;31328;51.402;0.016;2022-10-16T04:08:39;12.60;98.00
24902;DHT22;31328;51.402;0.016;2022-10-16T04:11:07;12.60;98.00
24902;DHT22;31328;51.402;0.016;2022-10-16T04:13:34;12.60;98.00
24902;DHT22;31328;51.402;0.016;2022-10-16T04:16:00;12.60;98.00
24902;DHT22;31328;51.402;0.016;2022-10-16T04:18:26;12.60;98.00
24902;DHT22;31328;51.402;0.016;2022-10-16T04:20:53;12.60;98.00
24902;DHT22;31328;51.402;0.016;2022-10-16T04:23:20;12.60;98.00
24902;DHT22;31328;51.402;0.016;2022-10-16T04:25:46;12.60;98.00
24902;DHT22;31328;51.402;0.016;2022-10-16T04:28:12;12.60;98.00
24902;DHT22;31328;51.402;0.016;2022-10-16T04:30:39;12.60;98.00
24902;DHT22;31328;51.402;0.016;2022-10-16T04:33:05;12.60;98.10
24902;DHT22;31328;51.402;0.016;2022-10-16T04:35:32;12.60;98.10
24902;DHT22;31328;51.402;0.016;2022-10-16T04:37:58;12.60;98.40
24902;DHT22;31328;51.402;0.016;2022-10-16T04:40:24;12.50;98.10
24902;DHT22;31328;51.402;0.016;2022-10-16T04:42:52;12.60;98.20
24902;DHT22;31328;51.402;0.016;2022-10-16T04:45:18;12.50;98.20
24902;DHT22;31328;51.402;0.016;2022-10-16T04:47:44;12.50;98.20
24902;DHT22;31328;51.402;0.016;2022-10-16T04:50:11;12.50;98.20
24902;DHT22;31328;51.402;0.016;2022-10-16T04:52:37;12.40;98.20
24902;DHT22;31328;51.402;0.016;2022-10-16T04:55:04;12.40;98.20
24902;DHT22;31328;51.402;0.016;2022-10-16T04:57:30;12.40;98.20
24902;DHT22;31328;51.402;0.016;2022-10-16T04:59:57;12.40;98.30
24902;DHT22;31328;51.402;0.016;2022-10-16T05:02:23;12.40;98.30
24902;DHT22;31328;51.402;0.016;2022-10-16T05:04:49;12.40;98.40
24902;DHT22;31328;51.402;0.016;2022-10-16T05:07:16;12.40;98.40
24902;DHT22;31328;51.402;0.016;2022-10-16T05:09:42;12.40;98.50
24902;DHT22;31328;51.402;0.016;2022-10-16T05:12:08;12.40;98.50
24902;DHT22;31328;51.402;0.016;2022-10-16T05:14:35;12.30;98.50
24902;DHT22;31328;51.402;0.016;2022-10-16T05:17:01;12.30;98.50
24902;DHT22;31328;51.402;0.016;2022-10-16T05:19:27;12.30;98.40
24902;DHT22;31328;51.402;0.016;2022-10-16T05:21:53;12.30;98.40
24902;DHT22;31328;51.402;0.016;2022-10-16T05:24:20;12.30;98.40
24902;DHT22;31328;51.402;0.016;2022-10-16T05:26:46;12.30;98.40
24902;DHT22;31328;51.402;0.016;2022-10-16T05:29:13;12.30;98.40
24902;DHT22;31328;51.402;0.016;2022-10-16T05:31:39;12.20;98.30
24902;DHT22;31328;51.402;0.016;2022-10-16T05:34:05;12.30;98.30
24902;DHT22;31328;51.402;0.016;2022-10-16T05:36:31;12.20;98.20
24902;DHT22;31328;51.402;0.016;2022-10-16T05:38:58;12.30;98.50
24902;DHT22;31328;51.402;0.016;2022-10-16T05:41:24;12.30;98.10
24902;DHT22;31328;51.402;0.016;2022-10-16T05:43:52;12.30;98.10
24902;DHT22;31328;51.402;0.016;2022-10-16T05:46:19;12.30;98.10
24902;DHT22;31328;51.402;0.016;2022-10-16T05:48:46;12.30;98.00
24902;DHT22;31328;51.402;0.016;2022-10-16T05:51:13;12.30;98.00
24902;DHT22;31328;51.402;0.016;2022-10-16T05:53:41;12.30;98.00
24902;DHT22;31328;51.402;0.016;2022-10-16T05:56:09;12.30;98.00
24902;DHT22;31328;51.402;0.016;2022-10-16T05:58:37;12.20;97.90
24902;DHT22;31328;51.402;0.016;2022-10-16T06:03:35;12.30;97.90
24902;DHT22;31328;51.402;0.016;2022-10-16T06:06:09;12.20;97.90
24902;DHT22;31328;51.402;0.016;2022-10-16T06:08:36;12.20;97.90
24902;DHT22;31328;51.402;0.016;2022-10-16T06:11:05;12.20;97.90
24902;DHT22;31328;51.402;0.016;2022-10-16T06:13:31;12.20;97.80
24902;DHT22;31328;51.402;0.016;2022-10-16T06:15:59;12.20;97.80
24902;DHT22;31328;51.402;0.016;2022-10-16T06:18:27;12.10;97.80
24902;DHT22;31328;51.402;0.016;2022-10-16T06:20:55;12.20;97.80
24902;DHT22;31328;51.402;0.016;2022-10-16T06:23:21;12.20;97.80
24902;DHT22;31328;51.402;0.016;2022-10-16T06:25:48;12.20;97.80
24902;DHT22;31328;51.402;0.016;2022-10-16T06:28:15;12.10;97.80
24902;DHT22;31328;51.402;0.016;2022-10-16T06:30:42;12.10;97.80
24902;DHT22;31328;51.402;0.016;2022-10-16T06:33:10;12.10;97.80
24902;DHT22;31328;51.402;0.016;2022-10-16T06:35:37;12.10;97.80
24902;DHT22;31328;51.402;0.016;2022-10-16T06:38:03;12.10;97.80
24902;DHT22;31328;51.402;0.016;2022-10-16T06:40:29;12.10;97.80
24902;DHT22;31328;51.402;0.016;2022-10-16T06:42:56;12.10;97.80
24902;DHT22;31328;51.402;0.016;2022-10-16T06:45:22;12.10;97.80
24902;DHT22;31328;51.402;0.016;2022-10-16T06:47:48;12.00;97.80
24902;DHT22;31328;51.402;0.016;2022-10-16T06:50:15;12.10;97.90
24902;DHT22;31328;51.402;0.016;2022-10-16T06:52:41;12.10;97.70
24902;DHT22;31328;51.402;0.016;2022-10-16T06:55:07;12.10;97.60
24902;DHT22;31328;51.402;0.016;2022-10-16T06:57:34;12.10;97.70
24902;DHT22;31328;51.402;0.016;2022-10-16T07:00:00;12.10;97.70
24902;DHT22;31328;51.402;0.016;2022-10-16T07:02:27;12.10;97.70
24902;DHT22;31328;51.402;0.016;2022-10-16T07:04:53;12.10;97.60
24902;DHT22;31328;51.402;0.016;2022-10-16T07:07:19;12.10;97.60
24902;DHT22;31328;51.402;0.016;2022-10-16T07:09:45;12.10;97.60
24902;DHT22;31328;51.402;0.016;2022-10-16T07:12:12;12.10;97.50
24902;DHT22;31328;51.402;0.016;2022-10-16T07:14:38;12.10;97.50
24902;DHT22;31328;51.402;0.016;2022-10-16T07:17:04;12.20;97.50
24902;DHT22;31328;51.402;0.016;2022-10-16T07:19:30;12.20;97.50
24902;DHT22;31328;51.402;0.016;2022-10-16T07:21:57;12.20;97.50
24902;DHT22;31328;51.402;0.016;2022-10-16T07:24:23;12.20;97.50
24902;DHT22;31328;51.402;0.016;2022-10-16T07:26:51;12.20;97.40
24902;DHT22;31328;51.402;0.016;2022-10-16T07:29:19;12.20;97.40
24902;DHT22;31328;51.402;0.016;2022-10-16T07:31:47;12.30;97.50
24902;DHT22;31328;51.402;0.016;2022-10-16T07:34:15;12.20;97.50
24902;DHT22;31328;51.402;0.016;2022-10-16T07:36:42;12.30;97.60
24902;DHT22;31328;51.402;0.016;2022-10-16T07:39:08;12.30;97.60
24902;DHT22;31328;51.402;0.016;2022-10-16T07:41:35;12.30;97.60
24902;DHT22;31328;51.402;0.016;2022-10-16T07:44:03;12.30;97.60
24902;DHT22;31328;51.402;0.016;2022-10-16T07:46:30;12.30;97.60
24902;DHT22;31328;51.402;0.016;2022-10-16T07:48:57;12.30;97.70
24902;DHT22;31328;51.402;0.016;2022-10-16T07:51:24;12.30;97.70
24902;DHT22;31328;51.402;0.016;2022-10-16T07:53:51;12.30;97.80
24902;DHT22;31328;51.402;0.016;2022-10-16T07:56:18;12.30;97.90
24902;DHT22;31328;51.402;0.016;2022-10-16T07:58:45;12.30;97.90
24902;DHT22;31328;51.402;0.016;2022-10-16T08:01:14;12.40;98.00
24902;DHT22;31328;51.402;0.016;2022-10-16T08:03:45;12.30;98.00
24902;DHT22;31328;51.402;0.016;2022-10-16T08:06:12;12.30;98.10
24902;DHT22;31328;51.402;0.016;2022-10-16T08:08:38;12.40;98.10
24902;DHT22;31328;51.402;0.016;2022-10-16T08:11:04;12.40;98.40
24902;DHT22;31328;51.402;0.016;2022-10-16T08:13:31;12.40;98.20
24902;DHT22;31328;51.402;0.016;2022-10-16T08:15:58;12.40;98.20
24902;DHT22;31328;51.402;0.016;2022-10-16T08:18:24;12.40;98.10
24902;DHT22;31328;51.402;0.016;2022-10-16T08:20:58;12.50;98.10
24902;DHT22;31328;51.402;0.016;2022-10-16T08:23:26;12.50;98.20
24902;DHT22;31328;51.402;0.016;2022-10-16T08:26:01;12.50;98.20
24902;DHT22;31328;51.402;0.016;2022-10-16T08:28:27;12.50;98.20
24902;DHT22;31328;51.402;0.016;2022-10-16T08:30:53;12.60;98.20
24902;DHT22;31328;51.402;0.016;2022-10-16T08:33:20;12.60;98.20
24902;DHT22;31328;51.402;0.016;2022-10-16T08:35:52;12.60;98.20
24902;DHT22;31328;51.402;0.016;2022-10-16T08:38:20;12.70;98.30
24902;DHT22;31328;51.402;0.016;2022-10-16T08:40:47;12.70;98.20
24902;DHT22;31328;51.402;0.016;2022-10-16T08:50:50;12.70;98.10
24902;DHT22;31328;51.402;0.016;2022-10-16T08:53:43;12.80;98.00
24902;DHT22;31328;51.402;0.016;2022-10-16T08:56:10;12.80;98.00
24902;DHT22;31328;51.402;0.016;2022-10-16T08:58:37;12.90;98.10
24902;DHT22;31328;51.402;0.016;2022-10-16T09:01:10;12.90;98.10
24902;DHT22;31328;51.402;0.016;2022-10-16T09:06:57;13.00;98.00
24902;DHT22;31328;51.402;0.016;2022-10-16T09:12:26;13.10;97.80
24902;DHT22;31328;51.402;0.016;2022-10-16T09:18:09;13.20;97.60
24902;DHT22;31328;51.402;0.016;2022-10-16T09:20:50;13.20;97.60
24902;DHT22;31328;51.402;0.016;2022-10-16T09:23:23;13.30;97.50
24902;DHT22;31328;51.402;0.016;2022-10-16T09:25:51;13.30;97.50
24902;DHT22;31328;51.402;0.016;2022-10-16T09:28:18;13.40;97.30
24902;DHT22;31328;51.402;0.016;2022-10-16T09:30:46;13.40;97.30
24902;DHT22;31328;51.402;0.016;2022-10-16T09:33:15;13.50;97.60
24902;DHT22;31328;51.402;0.016;2022-10-16T09:35:48;13.60;97.20
24902;DHT22;31328;51.402;0.016;2022-10-16T09:38:30;13.60;97.10
24902;DHT22;31328;51.402;0.016;2022-10-16T09:40:58;13.60;97.00
24902;DHT22;31328;51.402;0.016;2022-10-16T09:43:40;13.70;97.10
24902;DHT22;31328;51.402;0.016;2022-10-16T09:46:19;13.70;97.00
24902;DHT22;31328;51.402;0.016;2022-10-16T09:48:49;13.80;96.90
24902;DHT22;31328;51.402;0.016;2022-10-16T09:51:26;13.90;96.90
24902;DHT22;31328;51.402;0.016;2022-10-16T09:54:00;13.90;96.80
24902;DHT22;31328;51.402;0.016;2022-10-16T09:56:32;14.00;96.70
24902;DHT22;31328;51.402;0.016;2022-10-16T09:59:01;14.00;96.60
24902;DHT22;31328;51.402;0.016;2022-10-16T10:01:37;14.10;96.60
24902;DHT22;31328;51.402;0.016;2022-10-16T10:04:05;14.10;96.40
24902;DHT22;31328;51.402;0.016;2022-10-16T10:06:37;14.10;96.30
24902;DHT22;31328;51.402;0.016;2022-10-16T10:11:59;14.20;96.20
24902;DHT22;31328;51.402;0.016;2022-10-16T10:19:40;14.40;96.00
24902;DHT22;31328;51.402;0.016;2022-10-16T10:24:55;14.50;95.60
24902;DHT22;31328;51.402;0.016;2022-10-16T10:27:35;14.60;95.60
24902;DHT22;31328;51.402;0.016;2022-10-16T10:38:39;15.10;95.30
24902;DHT22;31328;51.402;0.016;2022-10-16T10:46:50;15.40;94.70
24902;DHT22;31328;51.402;0.016;2022-10-16T10:49:46;15.60;94.60
24902;DHT22;31328;51.402;0.016;2022-10-16T11:06:16;16.20;94.00
24902;DHT22;31328;51.402;0.016;2022-10-16T11:09:00;16.30;93.80
24902;DHT22;31328;51.402;0.016;2022-10-16T11:14:23;16.40;93.60
24902;DHT22;31328;51.402;0.016;2022-10-16T11:19:25;16.50;93.30
24902;DHT22;31328;51.402;0.016;2022-10-16T11:22:11;16.50;93.20
24902;DHT22;31328;51.402;0.016;2022-10-16T11:24:47;16.60;93.20
24902;DHT22;31328;51.402;0.016;2022-10-16T11:27:20;16.60;93.10
24902;DHT22;31328;51.402;0.016;2022-10-16T11:29:58;16.60;93.00
24902;DHT22;31328;51.402;0.016;2022-10-16T11:32:48;16.70;93.00
24902;DHT22;31328;51.402;0.016;2022-10-16T11:35:32;16.80;92.80
24902;DHT22;31328;51.402;0.016;2022-10-16T11:38:03;16.80;92.90
24902;DHT22;31328;51.402;0.016;2022-10-16T11:40:38;16.90;92.90
24902;DHT22;31328;51.402;0.016;2022-10-16T11:43:32;16.90;92.90
24902;DHT22;31328;51.402;0.016;2022-10-16T11:46:04;17.00;92.90
24902;DHT22;31328;51.402;0.016;2022-10-16T11:48:43;17.00;92.80
24902;DHT22;31328;51.402;0.016;2022-10-16T11:53:55;17.10;92.60
24902;DHT22;31328;51.402;0.016;2022-10-16T11:56:22;17.10;92.70
24902;DHT22;31328;51.402;0.016;2022-10-16T11:59:07;17.20;92.70
24902;DHT22;31328;51.402;0.016;2022-10-16T12:01:38;17.30;92.40
24902;DHT22;31328;51.402;0.016;2022-10-16T12:09:32;17.50;91.80
24902;DHT22;31328;51.402;0.016;2022-10-16T12:11:58;17.60;91.70
24902;DHT22;31328;51.402;0.016;2022-10-16T12:17:03;17.70;91.40
24902;DHT22;31328;51.402;0.016;2022-10-16T12:19:32;17.70;91.40
24902;DHT22;31328;51.402;0.016;2022-10-16T12:22:01;17.70;91.40
24902;DHT22;31328;51.402;0.016;2022-10-16T12:24:42;17.70;91.60
24902;DHT22;31328;51.402;0.016;2022-10-16T12:27:28;17.70;91.70
24902;DHT22;31328;51.402;0.016;2022-10-16T12:30:00;17.70;91.70
24902;DHT22;31328;51.402;0.016;2022-10-16T12:32:37;17.70;91.80
24902;DHT22;31328;51.402;0.016;2022-10-16T12:35:21;17.60;91.80
24902;DHT22;31328;51.402;0.016;2022-10-16T12:37:48;17.60;91.80
24902;DHT22;31328;51.402;0.016;2022-10-16T12:40:29;17.60;91.90
24902;DHT22;31328;51.402;0.016;2022-10-16T12:42:57;17.50;91.70
24902;DHT22;31328;51.402;0.016;2022-10-16T12:45:26;17.40;91.80
24902;DHT22;31328;51.402;0.016;2022-10-16T12:47:54;17.40;91.90
24902;DHT22;31328;51.402;0.016;2022-10-16T12:50:38;17.30;91.80
24902;DHT22;31328;51.402;0.016;2022-10-16T12:53:21;17.30;91.90
24902;DHT22;31328;51.402;0.016;2022-10-16T12:56:21;17.20;92.00
24902;DHT22;31328;51.402;0.016;2022-10-16T13:16:12;17.10;92.60
24902;DHT22;31328;51.402;0.016;2022-10-16T13:18:54;17.10;92.60
24902;DHT22;31328;51.402;0.016;2022-10-16T13:27:04;17.20;92.70
24902;DHT22;31328;51.402;0.016;2022-10-16T13:29:33;17.20;92.80
24902;DHT22;31328;51.402;0.016;2022-10-16T13:32:01;17.10;92.70
24902;DHT22;31328;51.402;0.016;2022-10-16T13:34:41;17.10;92.80
24902;DHT22;31328;51.402;0.016;2022-10-16T13:37:21;17.00;93.00
24902;DHT22;31328;51.402;0.016;2022-10-16T13:39:48;17.10;93.20
24902;DHT22;31328;51.402;0.016;2022-10-16T13:42:28;17.10;93.30
24902;DHT22;31328;51.402;0.016;2022-10-16T13:44:55;17.10;93.30
24902;DHT22;31328;51.402;0.016;2022-10-16T13:47:27;17.10;93.40
24902;DHT22;31328;51.402;0.016;2022-10-16T13:50:13;17.10;93.50
24902;DHT22;31328;51.402;0.016;2022-10-16T13:52:40;17.20;93.50
24902;DHT22;31328;51.402;0.016;2022-10-16T13:55:14;17.20;93.60
24902;DHT22;31328;51.402;0.016;2022-10-16T13:57:42;17.20;93.60
24902;DHT22;31328;51.402;0.016;2022-10-16T14:00:38;17.20;93.60
24902;DHT22;31328;51.402;0.016;2022-10-16T14:03:11;17.20;93.50
24902;DHT22;31328;51.402;0.016;2022-10-16T14:06:06;17.30;93.60
24902;DHT22;31328;51.402;0.016;2022-10-16T14:08:53;17.30;93.60
24902;DHT22;31328;51.402;0.016;2022-10-16T14:11:22;17.30;93.60
24902;DHT22;31328;51.402;0.016;2022-10-16T14:13:50;17.30;93.60
24902;DHT22;31328;51.402;0.016;2022-10-16T14:16:20;17.30;93.60
24902;DHT22;31328;51.402;0.016;2022-10-16T14:18:57;17.30;93.70
24902;DHT22;31328;51.402;0.016;2022-10-16T14:21:26;17.30;93.70
24902;DHT22;31328;51.402;0.016;2022-10-16T14:23:53;17.30;93.70
24902;DHT22;31328;51.402;0.016;2022-10-16T14:26:22;17.20;93.80
24902;DHT22;31328;51.402;0.016;2022-10-16T14:29:03;17.30;94.00
24902;DHT22;31328;51.402;0.016;2022-10-16T14:31:32;17.30;94.00
24902;DHT22;31328;51.402;0.016;2022-10-16T14:33:59;17.30;94.10
24902;DHT22;31328;51.402;0.016;2022-10-16T14:36:27;17.20;94.00
24902;DHT22;31328;51.402;0.016;2022-10-16T14:39:05;17.20;94.00
24902;DHT22;31328;51.402;0.016;2022-10-16T14:41:41;17.20;94.00
24902;DHT22;31328;51.402;0.016;2022-10-16T14:44:12;17.20;94.10
24902;DHT22;31328;51.402;0.016;2022-10-16T14:46:41;17.20;94.20
24902;DHT22;31328;51.402;0.016;2022-10-16T14:51:35;17.10;94.20
24902;DHT22;31328;51.402;0.016;2022-10-16T14:54:02;17.10;94.20
24902;DHT22;31328;51.402;0.016;2022-10-16T14:56:58;17.10;94.20
24902;DHT22;31328;51.402;0.016;2022-10-16T14:59:41;17.10;94.40
24902;DHT22;31328;51.402;0.016;2022-10-16T15:02:33;17.10;94.40
24902;DHT22;31328;51.402;0.016;2022-10-16T15:07:43;17.00;94.60
24902;DHT22;31328;51.402;0.016;2022-10-16T15:10:10;17.00;94.70
24902;DHT22;31328;51.402;0.016;2022-10-16T15:12:36;17.00;94.80
24902;DHT22;31328;51.402;0.016;2022-10-16T15:17:57;17.00;94.90
24902;DHT22;31328;51.402;0.016;2022-10-16T15:20:25;16.90;94.90
24902;DHT22;31328;51.402;0.016;2022-10-16T15:22:52;16.90;94.90
24902;DHT22;31328;51.402;0.016;2022-10-16T15:25:31;16.90;95.00
24902;DHT22;31328;51.402;0.016;2022-10-16T15:27:59;16.80;95.10
24902;DHT22;31328;51.402;0.016;2022-10-16T15:30:26;16.80;95.20
24902;DHT22;31328;51.402;0.016;2022-10-16T15:32:53;16.80;95.20
24902;DHT22;31328;51.402;0.016;2022-10-16T15:35:19;16.80;95.30
24902;DHT22;31328;51.402;0.016;2022-10-16T15:37:47;16.70;95.40
24902;DHT22;31328;51.402;0.016;2022-10-16T15:40:15;16.70;95.40
24902;DHT22;31328;51.402;0.016;2022-10-16T15:42:41;16.60;95.50
24902;DHT22;31328;51.402;0.016;2022-10-16T15:45:09;16.60;95.60
24902;DHT22;31328;51.402;0.016;2022-10-16T15:47:35;16.60;95.70
24902;DHT22;31328;51.402;0.016;2022-10-16T15:50:03;16.50;95.70
24902;DHT22;31328;51.402;0.016;2022-10-16T15:52:29;16.50;95.80
24902;DHT22;31328;51.402;0.016;2022-10-16T15:54:58;16.50;95.80
24902;DHT22;31328;51.402;0.016;2022-10-16T15:57:24;16.40;95.90
24902;DHT22;31328;51.402;0.016;2022-10-16T15:59:51;16.40;96.00
24902;DHT22;31328;51.402;0.016;2022-10-16T16:02:17;16.40;96.10
24902;DHT22;31328;51.402;0.016;2022-10-16T16:04:44;16.40;96.10
24902;DHT22;31328;51.402;0.016;2022-10-16T16:07:10;16.40;96.20
24902;DHT22;31328;51.402;0.016;2022-10-16T16:09:36;16.40;96.20
24902;DHT22;31328;51.402;0.016;2022-10-16T16:12:03;16.30;96.20
24902;DHT22;31328;51.402;0.016;2022-10-16T16:14:30;16.30;96.30
24902;DHT22;31328;51.402;0.016;2022-10-16T16:16:57;16.30;96.30
24902;DHT22;31328;51.402;0.016;2022-10-16T16:19:24;16.30;96.30
24902;DHT22;31328;51.402;0.016;2022-10-16T16:21:50;16.30;96.30
24902;DHT22;31328;51.402;0.016;2022-10-16T16:24:16;16.30;96.40
24902;DHT22;31328;51.402;0.016;2022-10-16T16:26:43;16.20;96.40
24902;DHT22;31328;51.402;0.016;2022-10-16T16:29:14;16.20;96.40
24902;DHT22;31328;51.402;0.016;2022-10-16T16:31:41;16.20;96.50
24902;DHT22;31328;51.402;0.016;2022-10-16T16:34:08;16.20;96.60
24902;DHT22;31328;51.402;0.016;2022-10-16T16:36:35;16.20;96.60
24902;DHT22;31328;51.402;0.016;2022-10-16T16:39:02;16.10;96.70
24902;DHT22;31328;51.402;0.016;2022-10-16T16:41:29;16.10;96.70
24902;DHT22;31328;51.402;0.016;2022-10-16T16:44:08;16.10;96.80
24902;DHT22;31328;51.402;0.016;2022-10-16T16:46:35;16.10;96.90
24902;DHT22;31328;51.402;0.016;2022-10-16T16:49:03;16.10;96.90
24902;DHT22;31328;51.402;0.016;2022-10-16T16:51:30;16.00;97.00
24902;DHT22;31328;51.402;0.016;2022-10-16T16:53:56;16.00;97.00
24902;DHT22;31328;51.402;0.016;2022-10-16T16:56:23;16.00;97.10
24902;DHT22;31328;51.402;0.016;2022-10-16T16:58:51;16.00;97.10
24902;DHT22;31328;51.402;0.016;2022-10-16T17:01:18;15.90;97.20
24902;DHT22;31328;51.402;0.016;2022-10-16T17:03:48;15.90;97.30
24902;DHT22;31328;51.402;0.016;2022-10-16T17:06:15;15.90;97.30
24902;DHT22;31328;51.402;0.016;2022-10-16T17:08:42;15.80;97.40
24902;DHT22;31328;51.402;0.016;2022-10-16T17:11:18;15.90;97.50
24902;DHT22;31328;51.402;0.016;2022-10-16T17:13:45;15.80;97.50
24902;DHT22;31328;51.402;0.016;2022-10-16T17:16:12;15.80;97.60
24902;DHT22;31328;51.402;0.016;2022-10-16T17:18:38;15.80;97.60
24902;DHT22;31328;51.402;0.016;2022-10-16T17:21:07;15.80;97.70
24902;DHT22;31328;51.402;0.016;2022-10-16T17:23:34;15.80;97.80
24902;DHT22;31328;51.402;0.016;2022-10-16T17:26:09;15.80;97.80
24902;DHT22;31328;51.402;0.016;2022-10-16T17:28:36;15.80;97.90
24902;DHT22;31328;51.402;0.016;2022-10-16T17:31:09;15.80;98.10
24902;DHT22;31328;51.402;0.016;2022-10-16T17:33:36;15.80;98.10
24902;DHT22;31328;51.402;0.016;2022-10-16T17:36:02;15.80;98.20
24902;DHT22;31328;51.402;0.016;2022-10-16T17:38:29;15.80;98.30
24902;DHT22;31328;51.402;0.016;2022-10-16T17:40:55;15.70;98.30
24902;DHT22;31328;51.402;0.016;2022-10-16T17:43:21;15.70;98.90
24902;DHT22;31328;51.402;0.016;2022-10-16T17:45:48;15.70;98.60
24902;DHT22;31328;51.402;0.016;2022-10-16T17:48:14;15.70;98.60
24902;DHT22;31328;51.402;0.016;2022-10-16T17:50:41;15.60;98.70